Time;durP1;ratioP1;P1;durP2;ratioP2;P2;SDS_P1;SDS_P2;PMS_P1;PMS_P2;Temp;Humidity;BMP_temperature;BMP_pressure;BME280_temperature;BME280_humidity;BME280_pressure;Samples;Min_cycle;Max_cycle;Signal;HPM_P1;HPM_P2
2022/02/04 00:05:57;;;;;;;33.80;21.73;;;6.90;99.90;;;;;;5053622;28;20239;-59
2022/02/04 00:08:46;;;;;;;35.60;22.73;;;7.00;99.90;;;;;;5053175;28;20289;-59
2022/02/04 00:22:46;;;;;;;37.13;23.20;;;7.00;99.90;;;;;;5010479;28;20319;-59
2022/02/04 00:25:22;;;;;;;33.73;21.57;;;6.90;99.90;;;;;;5011133;28;20327;-59
2022/02/04 00:27:55;;;;;;;34.50;21.97;;;6.90;99.90;;;;;;5036455;28;20646;-60
2022/02/04 00:30:27;;;;;;;37.63;22.63;;;7.00;99.90;;;;;;5064867;28;20246;-59
2022/02/04 00:32:58;;;;;;;37.70;21.90;;;7.00;99.90;;;;;;5064658;28;20278;-59
2022/02/04 00:35:34;;;;;;;37.60;23.03;;;7.00;99.90;;;;;;5052678;28;20549;-59
2022/02/04 00:38:07;;;;;;;38.47;23.73;;;7.10;99.90;;;;;;5053081;28;20255;-59
2022/02/04 00:40:39;;;;;;;40.27;23.70;;;7.00;99.90;;;;;;5052338;28;20687;-59
2022/02/04 00:43:13;;;;;;;36.10;22.00;;;7.00;99.90;;;;;;5052875;28;20250;-59
2022/02/04 00:45:48;;;;;;;38.30;24.23;;;6.90;99.90;;;;;;5052490;28;20266;-59
2022/02/04 00:48:43;;;;;;;37.80;22.97;;;6.90;99.90;;;;;;5047608;28;20688;-59
2022/02/04 00:51:17;;;;;;;38.70;23.83;;;7.00;99.90;;;;;;5037980;28;20779;-59
2022/02/04 00:53:54;;;;;;;40.70;23.70;;;7.00;99.90;;;;;;5047655;28;20259;-59
2022/02/04 00:56:31;;;;;;;37.63;22.70;;;7.00;99.90;;;;;;5052314;28;20295;-60
2022/02/04 01:13:17;;;;;;;42.83;24.57;;;7.00;99.90;;;;;;5041366;28;20677;-59
2022/02/04 01:26:59;;;;;;;41.63;24.67;;;7.00;99.90;;;;;;5029799;28;20395;-59
2022/02/04 01:29:32;;;;;;;39.73;24.37;;;7.00;99.90;;;;;;5054605;28;20242;-59
2022/02/04 01:32:02;;;;;;;41.40;24.97;;;7.00;99.90;;;;;;5066180;28;20321;-59
2022/02/04 01:34:30;;;;;;;44.53;26.87;;;7.00;99.90;;;;;;5051892;28;20232;-59
2022/02/04 01:36:59;;;;;;;42.37;25.97;;;7.00;99.90;;;;;;5051827;28;20240;-59
2022/02/04 01:39:27;;;;;;;44.90;26.23;;;7.10;99.90;;;;;;5051561;28;20228;-59
2022/02/04 01:41:55;;;;;;;41.47;25.97;;;7.10;99.90;;;;;;5051821;28;20242;-58
2022/02/04 01:44:25;;;;;;;44.37;26.83;;;7.00;99.90;;;;;;5051656;28;20240;-59
2022/02/04 01:46:53;;;;;;;42.33;26.60;;;7.00;99.90;;;;;;5051534;28;20246;-59
2022/02/04 01:49:24;;;;;;;44.03;26.80;;;7.00;99.90;;;;;;5051123;28;20231;-59
2022/02/04 01:51:52;;;;;;;46.53;27.53;;;7.00;99.90;;;;;;5051649;28;20260;-58
2022/02/04 01:54:21;;;;;;;45.50;27.77;;;7.00;99.90;;;;;;5051292;28;20236;-59
2022/02/04 01:56:49;;;;;;;45.90;28.63;;;7.00;99.90;;;;;;5051493;28;20290;-59
2022/02/04 01:59:17;;;;;;;45.20;26.93;;;7.00;99.90;;;;;;5049409;28;20596;-59
2022/02/04 02:01:45;;;;;;;42.60;25.77;;;7.00;99.90;;;;;;5040732;28;20708;-59
2022/02/04 02:04:15;;;;;;;44.13;26.47;;;7.00;99.90;;;;;;5050204;28;20235;-59
2022/02/04 02:06:50;;;;;;;45.43;27.67;;;7.10;99.90;;;;;;5051002;28;20235;-59
2022/02/04 02:09:19;;;;;;;47.70;26.33;;;7.10;99.90;;;;;;5048888;28;20288;-59
2022/02/04 02:11:51;;;;;;;48.47;29.03;;;7.10;99.90;;;;;;5030874;28;20240;-59
2022/02/04 02:14:22;;;;;;;50.43;29.17;;;7.00;99.90;;;;;;5050883;28;20290;-59
2022/02/04 02:42:36;;;;;;;49.03;29.03;;;7.10;99.90;;;;;;5049983;28;20272;-59
2022/02/04 02:45:21;;;;;;;45.50;28.70;;;7.00;99.90;;;;;;5050798;28;20239;-59
2022/02/04 02:48:06;;;;;;;47.27;29.63;;;7.00;99.90;;;;;;5050299;28;20650;-59
2022/02/04 02:50:56;;;;;;;48.13;30.20;;;7.00;99.90;;;;;;5050505;28;20266;-60
2022/02/04 02:53:47;;;;;;;49.57;29.63;;;6.90;99.90;;;;;;5050289;28;20326;-59
2022/02/04 02:56:54;;;;;;;47.80;29.80;;;7.00;99.90;;;;;;5050446;28;20266;-59
2022/02/04 02:59:20;;;;;;;48.07;29.17;;;7.00;99.90;;;;;;5050246;28;20236;-59
2022/02/04 03:01:50;;;;;;;48.87;29.93;;;7.00;99.90;;;;;;5050137;28;20256;-58
2022/02/04 03:04:19;;;;;;;49.50;30.20;;;7.00;99.90;;;;;;5050341;28;20243;-59
2022/02/04 03:06:48;;;;;;;47.73;30.13;;;7.00;99.90;;;;;;5050455;28;20239;-59
2022/02/04 03:09:18;;;;;;;50.57;29.80;;;6.90;99.90;;;;;;5048501;28;20247;-59
2022/02/04 03:11:47;;;;;;;48.37;29.80;;;6.90;99.90;;;;;;5042518;28;20247;-59
2022/02/04 03:14:15;;;;;;;50.17;30.77;;;7.00;99.90;;;;;;5049646;28;20262;-60
2022/02/04 03:16:45;;;;;;;49.17;30.57;;;6.90;99.90;;;;;;5050364;28;20224;-59
2022/02/04 03:19:14;;;;;;;50.77;29.87;;;6.90;99.90;;;;;;5050544;28;20322;-59
2022/02/04 03:21:45;;;;;;;52.13;31.93;;;7.00;99.90;;;;;;5050106;28;20231;-59
2022/02/04 03:24:17;;;;;;;48.60;30.93;;;7.10;99.90;;;;;;5052210;28;20259;-59
2022/02/04 03:26:49;;;;;;;49.00;30.93;;;7.00;99.90;;;;;;5054191;28;20259;-59
2022/02/04 03:29:24;;;;;;;44.33;28.20;;;6.90;99.90;;;;;;5054192;28;20642;-60
2022/02/04 03:31:57;;;;;;;49.43;29.10;;;7.00;99.90;;;;;;5059520;28;20234;-59
2022/02/04 03:34:25;;;;;;;49.20;30.87;;;7.00;99.90;;;;;;5060646;28;20373;-59
2022/02/04 03:36:53;;;;;;;46.90;30.60;;;6.90;99.90;;;;;;5054169;28;20251;-60
2022/02/04 03:39:21;;;;;;;46.23;28.87;;;6.90;99.90;;;;;;5034362;28;20244;-59
2022/02/04 03:41:51;;;;;;;44.57;28.97;;;7.00;99.90;;;;;;5033959;28;20735;-59
2022/02/04 03:44:19;;;;;;;49.00;30.17;;;7.00;99.90;;;;;;5053681;28;20262;-59
2022/02/04 03:46:47;;;;;;;48.67;31.67;;;7.00;99.90;;;;;;5053757;28;20239;-59
2022/02/04 03:49:15;;;;;;;45.73;29.00;;;7.00;99.90;;;;;;5053992;28;20242;-59
2022/02/04 03:51:43;;;;;;;47.40;29.80;;;7.00;99.90;;;;;;5053863;28;20232;-60
2022/02/04 03:54:11;;;;;;;51.70;33.53;;;7.00;99.90;;;;;;5053986;28;20270;-60
2022/02/04 03:56:39;;;;;;;52.53;31.87;;;7.00;99.90;;;;;;5053976;28;20236;-59
2022/02/04 03:59:09;;;;;;;54.40;33.40;;;7.00;99.90;;;;;;5053641;28;20244;-58
2022/02/04 04:01:37;;;;;;;51.57;32.10;;;7.00;99.90;;;;;;5053422;28;20235;-60
2022/02/04 04:04:05;;;;;;;50.03;31.73;;;7.00;99.90;;;;;;5053583;28;20704;-60
2022/02/04 04:06:33;;;;;;;52.67;32.50;;;6.90;99.90;;;;;;5053497;28;20231;-60
2022/02/04 04:09:01;;;;;;;55.90;33.70;;;6.90;99.90;;;;;;5053525;28;20749;-60
2022/02/04 04:11:30;;;;;;;54.73;33.23;;;6.80;99.90;;;;;;5033563;28;20240;-59
2022/02/04 04:13:58;;;;;;;53.83;34.03;;;6.80;99.90;;;;;;5050327;28;20669;-59
2022/02/04 04:16:27;;;;;;;57.90;33.80;;;6.80;99.90;;;;;;5053273;28;20322;-59
2022/02/04 04:18:56;;;;;;;52.00;32.63;;;6.90;99.90;;;;;;5053330;28;20232;-60
2022/02/04 04:21:24;;;;;;;56.30;33.93;;;6.90;99.90;;;;;;5048587;28;20247;-59
2022/02/04 04:23:52;;;;;;;51.90;33.37;;;6.80;99.90;;;;;;5052210;28;20281;-59
2022/02/04 04:26:20;;;;;;;57.03;34.90;;;6.80;99.90;;;;;;5053303;28;20242;-59
2022/02/04 04:28:48;;;;;;;51.57;31.83;;;6.90;99.90;;;;;;5053064;28;20261;-58
2022/02/04 04:31:18;;;;;;;56.63;33.87;;;6.80;99.90;;;;;;5053249;28;20581;-58
2022/02/04 04:33:47;;;;;;;54.07;33.57;;;6.80;99.90;;;;;;5052724;28;20239;-59
2022/02/04 04:36:17;;;;;;;52.27;30.97;;;6.80;99.90;;;;;;5061264;28;20231;-60
2022/02/04 04:38:51;;;;;;;53.90;32.40;;;6.80;99.90;;;;;;5057671;28;20243;-59
2022/02/04 04:41:29;;;;;;;56.80;33.07;;;6.80;99.90;;;;;;5052944;28;20255;-60
2022/02/04 04:44:32;;;;;;;52.17;31.53;;;6.80;99.90;;;;;;5052911;28;20231;-59
2022/02/04 05:28:56;;;;;;;40.87;25.63;;;6.80;99.90;;;;;;5038562;28;20723;-60
2022/02/04 05:31:25;;;;;;;45.03;27.93;;;6.80;99.90;;;;;;5047609;28;20254;-60
2022/02/04 05:33:53;;;;;;;45.00;28.50;;;6.80;99.90;;;;;;5047999;28;20306;-59
2022/02/04 05:36:21;;;;;;;44.40;27.47;;;6.80;99.90;;;;;;5052864;28;20270;-60
2022/02/04 05:38:52;;;;;;;44.47;26.57;;;6.80;99.90;;;;;;5064011;28;20238;-60
2022/02/04 05:41:26;;;;;;;45.37;26.70;;;6.90;99.90;;;;;;5051852;28;20708;-59
2022/02/04 05:43:57;;;;;;;45.80;28.03;;;6.90;99.90;;;;;;5047528;28;20239;-59
2022/02/04 05:46:29;;;;;;;44.87;28.27;;;6.90;99.90;;;;;;5040802;28;20258;-59
2022/02/04 05:48:59;;;;;;;44.03;26.43;;;6.90;99.90;;;;;;5048413;28;20321;-59
2022/02/04 05:51:36;;;;;;;45.20;29.23;;;6.90;99.90;;;;;;5051473;28;20250;-59
2022/02/04 05:54:13;;;;;;;42.67;27.27;;;6.90;99.90;;;;;;5051408;28;20242;-60
2022/02/04 05:56:50;;;;;;;42.73;27.63;;;6.90;99.90;;;;;;5051174;28;20259;-59
2022/02/04 05:59:26;;;;;;;43.77;27.07;;;6.90;99.90;;;;;;5051453;28;20281;-60
2022/02/04 06:02:06;;;;;;;45.13;27.23;;;6.90;99.90;;;;;;5051234;28;20318;-58
2022/02/04 06:04:49;;;;;;;42.73;26.87;;;6.90;99.90;;;;;;5051243;28;20239;-60
2022/02/04 06:07:34;;;;;;;42.33;26.73;;;6.80;99.90;;;;;;5051106;28;20270;-59
2022/02/04 06:23:47;;;;;;;46.43;28.60;;;6.90;99.90;;;;;;5050769;28;20646;-59
2022/02/04 06:26:16;;;;;;;46.10;28.63;;;7.00;99.90;;;;;;5051207;28;20240;-58
2022/02/04 06:28:46;;;;;;;42.30;26.73;;;7.10;99.90;;;;;;5054136;28;20243;-59
2022/02/04 06:31:22;;;;;;;47.10;29.17;;;7.00;99.90;;;;;;5059809;28;20251;-60
2022/02/04 06:33:57;;;;;;;43.53;27.47;;;7.00;99.90;;;;;;5056249;28;20235;-59
2022/02/04 06:36:26;;;;;;;47.17;29.10;;;7.00;99.90;;;;;;5053293;28;20293;-59
2022/02/04 06:38:54;;;;;;;44.03;27.97;;;7.00;99.90;;;;;;5061854;28;20231;-59
2022/02/04 06:41:24;;;;;;;46.97;28.63;;;7.10;99.90;;;;;;5071376;28;20239;-58
2022/02/04 06:43:52;;;;;;;46.17;28.87;;;7.00;99.90;;;;;;5055211;28;20231;-60
2022/02/04 06:46:20;;;;;;;46.13;27.97;;;7.00;99.90;;;;;;5050864;28;20240;-59
2022/02/04 06:48:51;;;;;;;45.10;28.40;;;7.10;99.90;;;;;;5050800;28;20285;-60
2022/02/04 06:51:19;;;;;;;46.63;29.53;;;7.10;99.90;;;;;;5065644;28;20602;-60
2022/02/04 06:53:47;;;;;;;46.90;28.83;;;7.00;99.90;;;;;;5055027;28;20234;-58
2022/02/04 06:56:15;;;;;;;44.03;28.73;;;7.00;99.90;;;;;;5050497;28;20255;-60
2022/02/04 06:58:45;;;;;;;44.93;28.43;;;6.90;99.90;;;;;;5050234;28;20236;-60
2022/02/04 07:01:16;;;;;;;45.13;29.37;;;6.90;99.90;;;;;;5058278;28;20238;-59
2022/02/04 07:03:44;;;;;;;45.30;28.10;;;7.00;99.90;;;;;;5066494;28;20262;-60
2022/02/04 07:06:15;;;;;;;46.10;28.73;;;7.00;99.90;;;;;;5070747;28;20234;-59
2022/02/04 07:08:58;;;;;;;47.23;29.83;;;7.00;99.90;;;;;;5055451;28;20259;-59
2022/02/04 07:11:48;;;;;;;45.30;29.63;;;7.00;99.90;;;;;;5049853;28;20322;-59
2022/02/04 07:14:27;;;;;;;44.20;28.67;;;7.00;99.90;;;;;;5050262;28;20281;-60
2022/02/04 07:17:11;;;;;;;50.43;30.67;;;7.10;99.90;;;;;;5050408;28;20634;-60
2022/02/04 07:19:49;;;;;;;47.97;28.73;;;7.10;99.90;;;;;;5050447;28;20311;-59
2022/02/04 07:22:19;;;;;;;47.37;31.03;;;7.10;99.90;;;;;;5049932;28;20924;-60
2022/02/04 07:24:49;;;;;;;47.13;31.73;;;7.10;99.90;;;;;;5050362;28;20695;-60
2022/02/04 07:27:18;;;;;;;50.60;31.40;;;7.10;99.90;;;;;;5050349;28;20724;-60
2022/02/04 07:29:50;;;;;;;48.47;28.70;;;7.20;99.90;;;;;;5050301;28;20236;-60
2022/02/04 07:32:23;;;;;;;49.90;32.17;;;7.30;99.90;;;;;;5052055;28;20282;-59
2022/02/04 07:35:14;;;;;;;46.60;30.70;;;7.20;99.90;;;;;;5061919;28;20227;-60
2022/02/04 07:43:15;;;;;;;46.73;30.77;;;7.10;99.90;;;;;;5047132;28;20682;-58
2022/02/04 07:45:45;;;;;;;48.63;32.03;;;7.10;99.90;;;;;;5057915;28;20242;-59
2022/02/04 07:48:13;;;;;;;46.77;31.03;;;7.20;99.90;;;;;;5059710;28;20255;-58
2022/02/04 07:50:43;;;;;;;44.83;29.20;;;7.10;99.90;;;;;;5058030;28;21369;-59
2022/02/04 07:53:11;;;;;;;49.03;31.67;;;7.20;99.90;;;;;;5059994;28;20327;-59
2022/02/04 07:55:39;;;;;;;47.33;32.20;;;7.20;99.90;;;;;;5061358;28;20231;-58
2022/02/04 07:58:09;;;;;;;46.13;30.50;;;7.20;99.90;;;;;;5061558;28;20699;-59
2022/02/04 08:00:38;;;;;;;46.03;31.70;;;7.20;99.90;;;;;;5059147;28;20289;-59
2022/02/04 08:03:24;;;;;;;42.17;30.40;;;7.20;99.90;;;;;;5060329;28;20338;-59
2022/02/04 08:05:55;;;;;;;42.13;29.33;;;7.20;99.90;;;;;;5062217;28;20711;-59
2022/02/04 08:08:30;;;;;;;42.90;30.10;;;7.30;99.90;;;;;;5051744;28;20252;-59
2022/02/04 08:11:14;;;;;;;41.77;30.30;;;7.30;99.90;;;;;;5045812;28;20322;-59
2022/02/04 08:16:58;;;;;;;39.80;28.97;;;7.30;99.90;;;;;;5044865;28;20255;-59
2022/02/04 08:22:31;;;;;;;40.13;29.70;;;7.40;99.90;;;;;;5043991;28;20239;-59
2022/02/04 08:25:17;;;;;;;42.63;30.90;;;7.40;99.90;;;;;;5044203;28;20319;-58
2022/02/04 08:36:26;;;;;;;44.33;28.67;;;7.50;99.90;;;;;;5029571;28;20263;-60
2022/02/04 08:50:31;;;;;;;39.13;28.17;;;7.70;99.90;;;;;;5046647;28;20239;-59
2022/02/04 08:53:08;;;;;;;36.80;27.30;;;7.70;99.90;;;;;;5051917;28;20259;-59
2022/02/04 08:55:44;;;;;;;37.33;27.47;;;7.70;99.90;;;;;;5051453;28;20632;-60
2022/02/04 08:58:25;;;;;;;36.93;28.20;;;7.70;99.90;;;;;;5054209;28;20238;-59
2022/02/04 09:01:02;;;;;;;35.43;25.80;;;7.80;99.90;;;;;;5051708;28;20239;-59
2022/02/04 09:03:37;;;;;;;36.67;27.47;;;7.80;99.90;;;;;;5057261;28;20630;-60
2022/02/04 09:06:20;;;;;;;37.33;26.30;;;7.90;99.90;;;;;;5055281;28;20292;-60
2022/02/04 09:08:51;;;;;;;32.93;26.63;;;7.80;99.90;;;;;;5052666;28;20656;-59
2022/02/04 09:11:38;;;;;;;33.57;25.37;;;7.80;99.90;;;;;;5052772;28;20815;-59
2022/02/04 09:17:02;;;;;;;33.90;26.30;;;7.90;99.90;;;;;;5054170;28;20289;-59
2022/02/04 09:19:43;;;;;;;31.53;24.80;;;8.00;99.90;;;;;;5052892;28;20292;-60
2022/02/04 09:22:26;;;;;;;31.60;25.33;;;7.90;99.90;;;;;;5051959;28;20231;-59
2022/02/04 09:24:54;;;;;;;32.17;25.23;;;7.90;99.90;;;;;;5053147;28;20326;-59
2022/02/04 09:27:22;;;;;;;32.23;24.57;;;8.00;99.90;;;;;;5053442;28;20627;-59
2022/02/04 09:29:55;;;;;;;31.50;23.60;;;8.00;99.90;;;;;;5053483;28;20731;-59
2022/02/04 09:32:23;;;;;;;28.00;23.70;;;8.00;99.90;;;;;;5052367;28;20258;-60
2022/02/04 09:34:51;;;;;;;32.23;24.20;;;8.10;99.90;;;;;;5053002;28;20752;-59
2022/02/04 09:37:32;;;;;;;28.57;23.37;;;8.10;99.90;;;;;;5050675;28;20243;-59
2022/02/04 09:40:00;;;;;;;29.47;22.53;;;8.10;99.90;;;;;;5051342;28;20227;-59
2022/02/04 09:42:30;;;;;;;29.23;23.63;;;8.20;99.90;;;;;;5051638;28;20254;-59
2022/02/04 09:44:59;;;;;;;27.30;21.93;;;8.20;99.90;;;;;;5037124;28;20246;-59
2022/02/04 09:47:34;;;;;;;29.17;22.77;;;8.20;99.90;;;;;;5036811;28;20235;-59
2022/02/04 09:50:14;;;;;;;27.90;20.90;;;8.20;99.90;;;;;;5035416;28;20240;-59
2022/02/04 10:04:51;;;;;;;24.93;20.53;;;8.40;99.90;;;;;;5037747;28;20235;-60
2022/02/04 10:07:29;;;;;;;24.23;20.07;;;8.40;99.90;;;;;;5036942;28;20247;-59
2022/02/04 10:15:56;;;;;;;23.43;19.27;;;8.50;99.90;;;;;;5013533;28;20592;-59
2022/02/04 10:18:31;;;;;;;23.83;18.63;;;8.40;99.90;;;;;;5037962;28;20324;-59
2022/02/04 10:21:04;;;;;;;21.20;18.70;;;8.40;99.90;;;;;;5034918;28;20236;-59
2022/02/04 10:23:46;;;;;;;23.50;19.73;;;8.40;99.90;;;;;;5036340;28;20260;-59
2022/02/04 10:26:17;;;;;;;20.33;17.73;;;8.50;99.90;;;;;;5037636;28;20240;-59
2022/02/04 10:28:46;;;;;;;21.57;18.87;;;8.50;99.90;;;;;;5037971;28;20731;-59
2022/02/04 10:31:20;;;;;;;20.73;17.97;;;8.60;99.90;;;;;;5037659;28;20268;-60
2022/02/04 10:34:04;;;;;;;21.20;17.83;;;8.60;99.90;;;;;;5039052;28;20240;-59
2022/02/04 10:36:41;;;;;;;21.63;17.80;;;8.60;99.90;;;;;;5037771;28;20258;-59
2022/02/04 10:39:32;;;;;;;20.77;17.47;;;8.60;99.90;;;;;;5039398;28;20243;-59
2022/02/04 10:42:19;;;;;;;17.33;15.50;;;8.70;99.90;;;;;;5038081;28;20236;-60
2022/02/04 10:47:49;;;;;;;20.40;16.37;;;8.90;99.90;;;;;;5035437;28;20236;-60
2022/02/04 10:50:54;;;;;;;17.63;15.83;;;8.80;99.90;;;;;;5037313;28;20244;-60
2022/02/04 10:59:09;;;;;;;18.77;15.70;;;9.00;99.90;;;;;;5024745;28;20239;-59
2022/02/04 11:02:00;;;;;;;18.27;16.00;;;8.90;99.90;;;;;;5032916;28;20228;-59
2022/02/04 11:04:34;;;;;;;16.97;15.03;;;8.90;99.90;;;;;;5017324;28;20650;-58
2022/02/04 11:07:31;;;;;;;17.20;14.80;;;8.90;99.90;;;;;;5033976;28;20243;-60
2022/02/04 11:10:14;;;;;;;17.60;15.20;;;8.90;99.90;;;;;;5038009;28;20241;-59
2022/02/04 11:35:27;;;;;;;13.47;11.50;;;9.10;99.90;;;;;;5037868;28;20244;-59
2022/02/04 11:43:58;;;;;;;13.43;11.00;;;9.00;99.90;;;;;;5037087;28;20245;-58
2022/02/04 11:52:33;;;;;;;13.37;10.73;;;9.00;99.90;;;;;;5034851;28;20275;-60
2022/02/04 11:55:02;;;;;;;12.30;10.77;;;9.00;99.90;;;;;;5037251;28;20282;-60
2022/02/04 11:57:32;;;;;;;11.63;10.43;;;9.00;99.90;;;;;;5035116;28;20712;-59
2022/02/04 12:00:03;;;;;;;12.37;11.07;;;9.00;99.90;;;;;;5036131;28;20244;-59
2022/02/04 12:02:39;;;;;;;11.27;10.17;;;8.90;99.90;;;;;;5033966;28;20248;-59
2022/02/04 12:05:34;;;;;;;11.57;9.83;;;9.00;99.90;;;;;;5028374;28;20251;-59
2022/02/04 12:08:30;;;;;;;12.47;10.03;;;8.90;99.90;;;;;;5033055;28;20259;-60
2022/02/04 12:11:11;;;;;;;10.57;9.47;;;8.90;99.90;;;;;;5032428;28;20267;-59
2022/02/04 12:14:11;;;;;;;10.13;9.13;;;8.90;99.90;;;;;;5033812;28;20258;-59
2022/02/04 12:17:03;;;;;;;10.90;9.37;;;8.80;99.90;;;;;;5035796;28;20236;-58
2022/02/04 12:19:39;;;;;;;10.40;9.23;;;8.80;99.90;;;;;;5034350;28;20241;-59
2022/02/04 12:22:11;;;;;;;9.60;8.70;;;8.80;99.90;;;;;;5034199;28;20731;-59
2022/02/04 12:24:45;;;;;;;10.50;9.10;;;8.80;99.90;;;;;;5036239;28;20242;-59
2022/02/04 12:27:27;;;;;;;9.27;7.87;;;8.80;99.90;;;;;;5034458;28;20245;-59
2022/02/04 12:29:57;;;;;;;8.93;8.03;;;8.80;99.90;;;;;;5034241;28;20271;-60
2022/02/04 12:32:26;;;;;;;9.63;7.67;;;8.80;99.90;;;;;;5033616;28;20235;-59
2022/02/04 12:34:55;;;;;;;10.17;7.90;;;8.80;99.90;;;;;;5036124;28;20243;-59
2022/02/04 12:37:24;;;;;;;9.27;7.37;;;8.80;99.90;;;;;;5034694;28;20269;-59
2022/02/04 12:39:52;;;;;;;9.13;7.20;;;8.80;99.90;;;;;;5036849;28;20250;-59
2022/02/04 12:42:20;;;;;;;7.87;6.70;;;8.90;99.90;;;;;;5036862;28;20289;-59
2022/02/04 12:44:49;;;;;;;7.83;6.20;;;8.90;99.90;;;;;;5038847;28;20699;-60
2022/02/04 12:47:22;;;;;;;10.33;6.53;;;8.80;99.90;;;;;;5047653;28;20243;-59
2022/02/04 12:49:53;;;;;;;6.87;6.20;;;8.80;99.90;;;;;;5041935;28;20691;-60
2022/02/04 12:52:27;;;;;;;8.23;6.07;;;8.80;99.90;;;;;;5042090;28;20244;-59
2022/02/04 12:55:06;;;;;;;5.67;5.10;;;8.80;99.90;;;;;;5044300;28;20259;-59
2022/02/04 12:57:39;;;;;;;5.93;4.60;;;8.80;99.90;;;;;;5042473;28;20321;-60
2022/02/04 13:00:32;;;;;;;6.80;4.83;;;8.80;99.90;;;;;;5046265;28;20236;-59
2022/02/04 13:03:07;;;;;;;6.40;4.77;;;8.90;99.90;;;;;;5048199;28;20232;-60
2022/02/04 13:08:38;;;;;;;5.57;4.20;;;8.90;99.90;;;;;;5045536;28;20239;-59
2022/02/04 13:11:10;;;;;;;5.63;4.10;;;8.90;99.90;;;;;;5034383;28;20268;-60
2022/02/04 13:13:45;;;;;;;5.63;4.00;;;8.90;99.90;;;;;;5035959;28;20324;-58
2022/02/04 13:16:15;;;;;;;4.83;4.10;;;8.90;99.90;;;;;;5036970;28;20249;-59
2022/02/04 13:18:43;;;;;;;5.87;4.37;;;8.90;99.90;;;;;;5036454;28;20232;-58
2022/02/04 13:21:14;;;;;;;5.93;4.37;;;8.80;99.90;;;;;;5040218;28;20251;-59
2022/02/04 13:23:46;;;;;;;4.37;3.77;;;8.90;99.90;;;;;;5039238;28;20777;-59
2022/02/04 13:26:15;;;;;;;7.17;4.37;;;8.90;99.90;;;;;;5040629;28;20271;-60
2022/02/04 13:28:45;;;;;;;5.10;3.70;;;8.80;99.90;;;;;;5044510;28;20247;-59
2022/02/04 13:31:16;;;;;;;5.07;3.87;;;8.80;99.90;;;;;;5041945;28;20255;-59
2022/02/04 13:33:46;;;;;;;5.93;3.73;;;8.80;99.90;;;;;;5039239;28;20291;-59
2022/02/04 13:36:24;;;;;;;6.57;3.77;;;8.80;99.90;;;;;;5035544;28;20255;-59
2022/02/04 13:39:04;;;;;;;6.43;4.43;;;8.80;99.90;;;;;;5040460;28;20268;-60
2022/02/04 13:41:42;;;;;;;4.50;3.63;;;8.80;99.90;;;;;;5036360;28;20377;-60
2022/02/04 13:44:25;;;;;;;4.73;3.90;;;8.90;99.90;;;;;;5040971;28;20337;-60
2022/02/04 13:47:00;;;;;;;5.60;4.30;;;8.80;99.90;;;;;;5038295;28;20251;-59
2022/02/04 13:49:53;;;;;;;4.60;4.00;;;8.80;99.90;;;;;;5038383;28;20242;-60
2022/02/04 13:52:38;;;;;;;5.60;4.70;;;8.80;99.90;;;;;;5040833;28;20654;-59
2022/02/04 13:55:24;;;;;;;4.80;4.07;;;8.80;99.90;;;;;;5038614;28;20231;-59
2022/02/04 13:58:09;;;;;;;5.17;4.67;;;8.80;99.90;;;;;;5043497;28;20240;-59
2022/02/04 14:00:56;;;;;;;5.20;4.10;;;8.80;99.90;;;;;;5040088;28;20232;-59
2022/02/04 14:03:27;;;;;;;4.87;4.10;;;8.90;99.90;;;;;;5042201;28;20248;-58
2022/02/04 14:06:01;;;;;;;6.33;3.97;;;8.90;99.90;;;;;;5038309;28;20338;-59
2022/02/04 14:08:32;;;;;;;5.97;4.23;;;8.90;99.90;;;;;;5038154;28;20238;-60
2022/02/04 14:11:05;;;;;;;6.33;3.83;;;8.90;99.90;;;;;;5039781;28;20970;-60
2022/02/04 14:13:54;;;;;;;4.33;3.93;;;8.80;99.90;;;;;;5038902;28;20699;-60
2022/02/04 14:16:23;;;;;;;4.50;4.10;;;8.80;99.90;;;;;;5039488;28;20605;-60
2022/02/04 14:18:51;;;;;;;4.47;4.07;;;8.80;99.90;;;;;;5036588;28;20610;-60
2022/02/04 14:21:19;;;;;;;5.00;4.30;;;8.80;99.90;;;;;;5038663;28;20239;-58
2022/02/04 14:23:53;;;;;;;4.80;4.30;;;8.80;99.90;;;;;;5040105;28;20334;-59
2022/02/04 14:26:27;;;;;;;5.80;4.37;;;8.80;99.90;;;;;;5035553;28;20247;-59
2022/02/04 14:29:01;;;;;;;5.97;4.23;;;8.80;99.90;;;;;;5037055;28;20754;-60
2022/02/04 14:31:35;;;;;;;7.77;4.53;;;8.80;99.90;;;;;;5038145;28;20256;-59
2022/02/04 14:37:02;;;;;;;4.43;3.50;;;8.80;99.90;;;;;;5034121;28;20244;-59
2022/02/04 14:53:43;;;;;;;5.00;3.90;;;8.70;99.90;;;;;;5012552;28;20240;-59
2022/02/04 15:01:52;;;;;;;5.63;4.97;;;8.60;99.90;;;;;;5033916;28;20247;-60
2022/02/04 15:04:36;;;;;;;4.67;3.83;;;8.50;99.90;;;;;;5034531;28;20244;-59
2022/02/04 15:07:07;;;;;;;12.10;8.37;;;8.40;99.90;;;;;;5037160;28;20240;-60
2022/02/04 15:09:37;;;;;;;7.47;6.40;;;8.40;99.90;;;;;;5037372;28;20232;-59
2022/02/04 15:12:06;;;;;;;14.87;9.63;;;8.40;99.90;;;;;;5033736;28;20236;-60
2022/02/04 15:14:35;;;;;;;7.87;5.30;;;8.30;99.90;;;;;;5037458;28;20243;-60
2022/02/04 15:17:04;;;;;;;8.40;6.40;;;8.40;99.90;;;;;;5035434;28;21173;-58
2022/02/04 15:19:34;;;;;;;4.97;4.47;;;8.30;99.90;;;;;;5036610;28;20297;-60
2022/02/04 15:22:06;;;;;;;8.07;4.93;;;8.30;99.90;;;;;;5035572;28;20255;-60
2022/02/04 15:24:34;;;;;;;5.13;4.47;;;8.30;99.90;;;;;;5036807;28;20251;-60
2022/02/04 15:27:04;;;;;;;4.60;4.07;;;8.30;99.90;;;;;;5040947;28;20232;-60
2022/02/04 15:29:36;;;;;;;4.13;3.13;;;8.30;99.90;;;;;;5035205;28;20243;-60
2022/02/04 15:32:06;;;;;;;4.63;4.23;;;8.30;99.90;;;;;;5035229;28;20261;-59
2022/02/04 15:34:34;;;;;;;5.07;4.07;;;8.30;99.90;;;;;;5036755;28;20274;-59
2022/02/04 15:37:03;;;;;;;11.07;8.97;;;8.30;99.90;;;;;;5040803;28;20335;-59
2022/02/04 15:39:31;;;;;;;6.37;4.70;;;8.20;99.90;;;;;;5036717;28;20246;-60
2022/02/04 15:42:04;;;;;;;6.97;4.17;;;8.20;99.90;;;;;;5040532;28;20245;-60
2022/02/04 15:44:40;;;;;;;4.53;4.10;;;8.30;99.90;;;;;;5036986;28;20560;-59
2022/02/04 15:52:51;;;;;;;4.80;3.90;;;8.20;99.90;;;;;;5024939;28;20251;-60
2022/02/04 15:58:23;;;;;;;3.30;3.03;;;8.20;99.90;;;;;;5038094;28;20780;-59
2022/02/04 16:03:55;;;;;;;3.10;2.67;;;8.10;99.90;;;;;;5030080;28;20322;-60
2022/02/04 16:06:28;;;;;;;4.20;3.00;;;8.10;99.90;;;;;;5032520;28;20236;-60
2022/02/04 16:08:57;;;;;;;3.30;3.00;;;8.10;99.90;;;;;;5032556;28;20236;-59
2022/02/04 16:11:49;;;;;;;3.93;2.70;;;8.10;99.90;;;;;;5032818;28;20585;-59
2022/02/04 16:14:22;;;;;;;4.60;3.40;;;8.10;99.90;;;;;;5035432;28;20237;-60
2022/02/04 16:16:54;;;;;;;3.53;3.23;;;8.10;99.90;;;;;;5032253;28;20273;-59
2022/02/04 16:19:33;;;;;;;3.67;3.37;;;8.10;99.90;;;;;;5035441;28;20810;-60
2022/02/04 16:22:12;;;;;;;4.63;3.17;;;8.10;99.90;;;;;;5033786;28;20271;-59
2022/02/04 16:25:05;;;;;;;3.60;3.30;;;8.00;99.90;;;;;;5035867;28;20315;-60
2022/02/04 16:30:20;;;;;;;3.43;3.13;;;8.00;99.90;;;;;;5035767;28;20243;-59
2022/02/04 16:32:48;;;;;;;3.53;3.23;;;8.00;99.90;;;;;;5039169;28;20251;-59
2022/02/04 16:35:17;;;;;;;4.73;4.17;;;7.90;99.90;;;;;;5035451;28;20716;-62
2022/02/04 16:37:50;;;;;;;4.57;4.10;;;7.90;99.90;;;;;;5036579;28;20270;-60
2022/02/04 16:40:19;;;;;;;3.10;2.80;;;7.90;99.90;;;;;;5037817;28;20784;-60
2022/02/04 16:42:48;;;;;;;2.23;2.00;;;7.80;99.90;;;;;;5033440;28;20238;-60
2022/02/04 16:45:16;;;;;;;1.50;1.40;;;7.40;99.90;;;;;;5035192;28;20234;-59
2022/02/04 16:47:45;;;;;;;2.77;1.53;;;6.90;99.90;;;;;;5037631;28;20666;-59
2022/02/04 16:50:13;;;;;;;1.80;1.50;;;6.60;99.90;;;;;;5059176;28;20727;-59
2022/02/04 16:52:43;;;;;;;2.97;1.93;;;6.30;99.90;;;;;;5033882;28;20244;-60
2022/02/04 16:55:11;;;;;;;4.57;2.50;;;6.10;99.90;;;;;;5037232;28;20245;-60
2022/02/04 16:57:40;;;;;;;3.10;2.70;;;6.00;99.90;;;;;;5045496;28;20239;-59
2022/02/04 17:00:20;;;;;;;3.87;2.70;;;5.90;99.90;;;;;;5033428;28;20240;-60
2022/02/04 17:02:50;;;;;;;2.40;1.80;;;5.80;99.90;;;;;;5040830;28;20259;-58
2022/02/04 17:05:22;;;;;;;3.60;1.90;;;5.60;99.90;;;;;;5037704;28;20716;-57
2022/02/04 17:07:54;;;;;;;0.70;0.70;;;5.50;99.90;;;;;;5040261;28;20344;-59
2022/02/04 17:10:29;;;;;;;1.00;0.40;;;5.30;99.90;;;;;;5039061;28;20277;-60
2022/02/04 17:13:00;;;;;;;1.77;0.40;;;5.10;99.90;;;;;;5035614;28;20329;-58
2022/02/04 17:15:30;;;;;;;0.23;0.23;;;5.10;99.90;;;;;;5038891;28;20599;-60
2022/02/04 17:18:00;;;;;;;1.40;0.40;;;5.00;99.90;;;;;;5037238;28;20892;-60
2022/02/04 17:20:29;;;;;;;1.17;0.30;;;4.80;99.90;;;;;;5046746;28;20239;-59
2022/02/04 17:23:01;;;;;;;0.63;0.30;;;4.70;99.90;;;;;;5046527;28;20481;-59
2022/02/04 17:25:33;;;;;;;0.30;0.30;;;4.70;99.90;;;;;;5039087;28;20338;-57
2022/02/04 17:28:02;;;;;;;0.37;0.37;;;4.60;99.90;;;;;;5043941;28;20320;-59
2022/02/04 17:30:31;;;;;;;0.30;0.30;;;4.50;99.90;;;;;;5034480;28;20253;-60
2022/02/04 17:33:02;;;;;;;0.70;0.40;;;4.50;99.90;;;;;;5039420;28;20486;-59
2022/02/04 17:35:30;;;;;;;0.83;0.40;;;4.40;99.90;;;;;;5037748;28;20235;-59